Nearby METAR Reports

 

KMTN - Baltimore/Martin, Maryland, USA
Distance from station: SSE 8mi, 13km
Updated: Sun, 24-May-2015 4:45am EDT
Clear
Clear
 Wind from calm
Wind: Calm
Temperature: 52°F , 11°C
Dew Point: 50°F , 10°C
Humidity: 94%
Barometer: 30.40 inHg , 1029.5 hPa
Clouds: Clear
Visibility: 10 miles , 16 km
2015/05/24 08:45 KMTN 240845Z AUTO 00000KT 10SM CLR 11/10 A3040 RMK AO2
KDMH - Baltimore/Dwntwn, Maryland, USA
Distance from station: SW 12mi, 19km
Updated: Sun, 24-May-2015 3:54am EDT

 
Temperature: 57°F , 14°C
Dew Point: 43°F , 6°C
Humidity: 59%
Barometer: 30.38 inHg , 1028.8 hPa
2015/05/24 07:54 KDMH 240754Z AUTO 14/06 A3038 RMK AO1 SLP288 T01390061
 
KBWI - Balto/Wash Intl, Maryland, USA
Distance from station: SSW 20mi, 33km
Updated: Sun, 24-May-2015 3:54am EDT
Few Clouds
Few Clouds
 Wind from calm
Wind: Calm
Temperature: 48°F , 9°C
Dew Point: 45°F , 7°C
Humidity: 87%
Barometer: 30.37 inHg , 1028.4 hPa
Clouds: Few Clouds
Visibility: 10 miles , 16 km
Cloud details: Few Clouds 25000 ft
2015/05/24 07:54 KBWI 240754Z 00000KT 10SM FEW250 09/07 A3037 RMK AO2 SLP285 T00890067
KDMW - Carroll Cnty, Maryland, USA
Distance from station: WNW 30mi, 48km
Updated: Sun, 24-May-2015 4:45am EDT
Partly cloudy
Partly cloudy
 Wind from calm
Wind: Calm
Temperature: 52°F , 11°C
Dew Point: 45°F , 7°C
Humidity: 77%
Barometer: 30.37 inHg , 1028.4 hPa
Clouds: Partly cloudy
Visibility: 10 miles , 16 km
Cloud details: Partly cloudy 9000 ft
2015/05/24 08:45 KDMW 240845Z AUTO 00000KT 10SM SCT090 11/07 A3037 RMK AO2
 
KNAK - Annapolis/Naval, Maryland, USA
Distance from station: S 30mi, 48km
Updated: Sun, 24-May-2015 3:54am EDT
Clear
Clear
 Wind from calm
Wind: Calm
Temperature: 55°F , 13°C
Dew Point: 45°F , 7°C
Humidity: 67%
Barometer: 30.37 inHg , 1028.4 hPa
Clouds: Clear
Visibility: 10 miles , 16 km
2015/05/24 07:54 KNAK 240754Z AUTO 00000KT 10SM CLR 13/07 A3037 RMK AO2 SLP286 T01330067
KW29 - Stevensville, Maryland, USA
Distance from station: SSE 31mi, 50km
Updated: Sun, 24-May-2015 4:46am EDT

 Wind from S
Wind: S 6 mph , 9 km/h
Barometer: 30.38 inHg , 1028.8 hPa
Visibility: 10 miles , 16 km
2015/05/24 08:46 KW29 240846Z AUTO 19005KT 10SM A3038 RMK AO1
 
KCGS - College Park, Maryland, USA
Distance from station: SW 38mi, 61km
Updated: Sun, 24-May-2015 4:45am EDT
Clear
Clear
 Wind from calm
Wind: Calm
Temperature: 48°F , 9°C
Dew Point: 46°F , 8°C
Humidity: 94%
Barometer: 30.38 inHg , 1028.8 hPa
Clouds: Clear
Visibility: 10 miles , 16 km
2015/05/24 08:45 KCGS 240845Z AUTO 00000KT 10SM CLR 09/08 A3038 RMK AO1
KGAI - Gaithersburg, Maryland, USA
Distance from station: WSW 40mi, 65km
Updated: Sun, 24-May-2015 4:35am EDT
Clear
Clear
 Wind from calm
Wind: Calm
Temperature: 48°F , 9°C
Dew Point: 43°F , 6°C
Humidity: 82%
Barometer: 30.41 inHg , 1029.8 hPa
Clouds: Clear
Visibility: 10 miles , 16 km
2015/05/24 08:35 KGAI 240835Z AUTO 00000KT 10SM CLR 09/06 A3041 RMK AO1
 
KTHV - York, Pennsylvania, USA
Distance from station: NNW 40mi, 65km
Updated: Sun, 24-May-2015 3:53am EDT
Clear
Clear
 Wind from calm
Wind: Calm
Temperature: 43°F , 6°C
Dew Point: 41°F , 5°C
Humidity: 93%
Barometer: 30.37 inHg , 1028.4 hPa
Clouds: Clear
Visibility: 10 miles , 16 km
2015/05/24 07:53 KTHV 240753Z AUTO 00000KT 10SM CLR 06/05 A3037 RMK AO2 SLP286 T00610050
KFDK - Frederick, Maryland, USA
Distance from station: W 47mi, 75km
Updated: Sun, 24-May-2015 4:45am EDT
Clear
Clear
 Wind from calm
Wind: Calm
Temperature: 45°F , 7°C
Dew Point: 45°F , 7°C
Humidity: 100%
Barometer: 30.39 inHg , 1029.1 hPa
Clouds: Clear
Visibility: 10 miles , 16 km
2015/05/24 08:45 KFDK 240845Z AUTO 00000KT 10SM CLR 07/07 A3039 RMK AO2
 
KESN - Easton/Newnam, Maryland, USA
Distance from station: SSE 48mi, 78km
Updated: Sun, 24-May-2015 5:04am EDT
Clear
Clear
 Wind from calm
Wind: Calm
Temperature: 54°F , 12°C
Dew Point: 54°F , 12°C
Humidity: 100%
Barometer: 30.42 inHg , 1030.1 hPa
Clouds: Clear
Visibility: 10 miles , 16 km
2015/05/24 09:04 KESN 240904Z AUTO 00000KT 10SM CLR 12/12 A3042 RMK AO2 T01200120
KDCA - Washington/Natl, Washington D.c., USA
Distance from station: SW 49mi, 79km
Updated: Sun, 24-May-2015 3:52am EDT
Few Clouds
Few Clouds
 Wind from SW
Wind: SW 3 mph , 6 km/h
Temperature: 59°F , 15°C
Dew Point: 45°F , 7°C
Humidity: 59%
Barometer: 30.38 inHg , 1028.8 hPa
Clouds: Few Clouds
Visibility: 10 miles , 16 km
Cloud details: Few Clouds 12000 ft
2015/05/24 07:52 KDCA 240752Z 22003KT 10SM FEW120 15/07 A3038 RMK AO2 SLP287 T01500072 $
 
KLNS - Lancaster, Pennsylvania, USA
Distance from station: N 49mi, 79km
Updated: Sun, 24-May-2015 3:53am EDT
Clear
Clear
 Wind from calm
Wind: Calm
Temperature: 46°F , 8°C
Dew Point: 41°F , 5°C
Humidity: 82%
Barometer: 30.36 inHg , 1028.1 hPa
Clouds: Clear
Visibility: 10 miles , 16 km
2015/05/24 07:53 KLNS 240753Z AUTO 00000KT 10SM CLR 08/05 A3036 RMK AO2 SLP282 T00830050 $
KILG - Wilmington, Delaware, USA
Distance from station: ENE 50mi, 81km
Updated: Sun, 24-May-2015 3:51am EDT
Clear
Clear
 Wind from SSW
Wind: SSW 5 mph , 7 km/h
Temperature: 52°F , 11°C
Dew Point: 43°F , 6°C
Humidity: 72%
Barometer: 30.39 inHg , 1029.1 hPa
Clouds: Clear
Visibility: 10 miles , 16 km
2015/05/24 07:51 KILG 240751Z AUTO 20004KT 10SM CLR 11/06 A3039 RMK AO2 SLP291 T01060056